sensor_id;sensor_type;location;lat;lon;timestamp;pressure;altitude;pressure_sealevel;temperature;humidity
18749;BME280;9503;53.560;10.246;2022-12-15T00:02:24;99700.66;;;-6.17;84.09
18749;BME280;9503;53.560;10.246;2022-12-15T00:05:08;99708.13;;;-6.17;84.39
18749;BME280;9503;53.560;10.246;2022-12-15T00:07:52;99698.47;;;-6.14;84.79
18749;BME280;9503;53.560;10.246;2022-12-15T00:10:36;99695.50;;;-6.10;85.45
18749;BME280;9503;53.560;10.246;2022-12-15T00:13:22;99695.53;;;-6.01;85.92
18749;BME280;9503;53.560;10.246;2022-12-15T00:16:06;99700.19;;;-5.87;85.77
18749;BME280;9503;53.560;10.246;2022-12-15T00:18:50;99702.09;;;-5.85;85.75
18749;BME280;9503;53.560;10.246;2022-12-15T00:21:35;99707.56;;;-5.97;84.54
18749;BME280;9503;53.560;10.246;2022-12-15T00:24:19;99724.41;;;-6.03;84.17
18749;BME280;9503;53.560;10.246;2022-12-15T00:27:03;99707.88;;;-5.94;85.13
18749;BME280;9503;53.560;10.246;2022-12-15T00:29:48;99708.97;;;-5.82;84.67
18749;BME280;9503;53.560;10.246;2022-12-15T00:32:32;99711.81;;;-5.96;84.43
18749;BME280;9503;53.560;10.246;2022-12-15T00:35:16;99697.09;;;-5.85;84.88
18749;BME280;9503;53.560;10.246;2022-12-15T00:38:06;99697.66;;;-5.70;85.77
18749;BME280;9503;53.560;10.246;2022-12-15T00:40:50;99696.47;;;-5.56;85.89
18749;BME280;9503;53.560;10.246;2022-12-15T00:43:23;99698.97;;;-5.56;85.67
18749;BME280;9503;53.560;10.246;2022-12-15T00:45:51;99696.75;;;-5.53;85.78
18749;BME280;9503;53.560;10.246;2022-12-15T00:48:35;99693.94;;;-5.47;85.35
18749;BME280;9503;53.560;10.246;2022-12-15T00:51:02;99695.09;;;-5.44;85.34
18749;BME280;9503;53.560;10.246;2022-12-15T00:53:27;99701.84;;;-5.34;85.31
18749;BME280;9503;53.560;10.246;2022-12-15T00:56:11;99721.84;;;-5.51;85.58
18749;BME280;9503;53.560;10.246;2022-12-15T00:58:55;99723.63;;;-5.42;85.95
18749;BME280;9503;53.560;10.246;2022-12-15T01:01:41;99716.81;;;-5.25;85.77
18749;BME280;9503;53.560;10.246;2022-12-15T01:04:25;99714.72;;;-5.12;85.72
18749;BME280;9503;53.560;10.246;2022-12-15T01:07:09;99722.31;;;-5.02;85.42
18749;BME280;9503;53.560;10.246;2022-12-15T01:09:53;99731.38;;;-5.39;86.75
18749;BME280;9503;53.560;10.246;2022-12-15T01:12:37;99727.88;;;-4.96;86.84
18749;BME280;9503;53.560;10.246;2022-12-15T01:15:21;99744.78;;;-5.02;87.01
18749;BME280;9503;53.560;10.246;2022-12-15T01:18:07;99725.97;;;-4.71;87.15
18749;BME280;9503;53.560;10.246;2022-12-15T01:20:55;99720.91;;;-4.54;87.24
18749;BME280;9503;53.560;10.246;2022-12-15T01:23:22;99724.00;;;-4.56;86.69
18749;BME280;9503;53.560;10.246;2022-12-15T01:25:49;99699.84;;;-4.47;86.85
18749;BME280;9503;53.560;10.246;2022-12-15T01:28:16;99702.19;;;-4.49;86.48
18749;BME280;9503;53.560;10.246;2022-12-15T01:30:44;99708.41;;;-4.54;86.93
18749;BME280;9503;53.560;10.246;2022-12-15T01:33:12;99712.59;;;-4.44;86.39
18749;BME280;9503;53.560;10.246;2022-12-15T01:35:40;99709.69;;;-4.49;86.11
18749;BME280;9503;53.560;10.246;2022-12-15T01:38:07;99705.03;;;-4.54;86.11
18749;BME280;9503;53.560;10.246;2022-12-15T01:40:33;99707.66;;;-4.53;85.75
18749;BME280;9503;53.560;10.246;2022-12-15T01:43:13;99704.88;;;-4.56;85.32
18749;BME280;9503;53.560;10.246;2022-12-15T01:45:46;99707.47;;;-4.73;85.93
18749;BME280;9503;53.560;10.246;2022-12-15T01:48:19;99701.03;;;-4.80;85.05
18749;BME280;9503;53.560;10.246;2022-12-15T01:50:53;99707.38;;;-4.83;84.88
18749;BME280;9503;53.560;10.246;2022-12-15T01:53:22;99712.63;;;-5.08;85.86
18749;BME280;9503;53.560;10.246;2022-12-15T01:55:49;99704.94;;;-5.01;86.02
18749;BME280;9503;53.560;10.246;2022-12-15T01:58:17;99708.66;;;-5.14;86.48
18749;BME280;9503;53.560;10.246;2022-12-15T02:00:45;99710.88;;;-5.09;86.28
18749;BME280;9503;53.560;10.246;2022-12-15T02:03:12;99716.00;;;-4.98;85.90
18749;BME280;9503;53.560;10.246;2022-12-15T02:05:40;99714.38;;;-4.98;86.06
18749;BME280;9503;53.560;10.246;2022-12-15T02:08:07;99722.00;;;-4.96;85.88
18749;BME280;9503;53.560;10.246;2022-12-15T02:10:44;99726.47;;;-5.11;85.46
18749;BME280;9503;53.560;10.246;2022-12-15T02:13:18;99726.09;;;-5.33;86.34
18749;BME280;9503;53.560;10.246;2022-12-15T02:15:49;99735.78;;;-5.45;87.51
18749;BME280;9503;53.560;10.246;2022-12-15T02:18:26;99739.47;;;-5.41;87.89
18749;BME280;9503;53.560;10.246;2022-12-15T02:21:01;99749.16;;;-5.53;89.09
18749;BME280;9503;53.560;10.246;2022-12-15T02:24:05;99738.56;;;-5.33;87.21
18749;BME280;9503;53.560;10.246;2022-12-15T02:27:07;99752.03;;;-5.22;86.97
18749;BME280;9503;53.560;10.246;2022-12-15T02:30:16;99743.41;;;-5.26;87.07
18749;BME280;9503;53.560;10.246;2022-12-15T02:32:52;99745.03;;;-5.35;87.09
18749;BME280;9503;53.560;10.246;2022-12-15T02:35:25;99743.09;;;-5.29;86.46
18749;BME280;9503;53.560;10.246;2022-12-15T02:37:53;99736.78;;;-5.25;86.36
18749;BME280;9503;53.560;10.246;2022-12-15T02:40:20;99731.63;;;-5.18;86.00
18749;BME280;9503;53.560;10.246;2022-12-15T02:42:50;99728.41;;;-5.26;86.30
18749;BME280;9503;53.560;10.246;2022-12-15T02:45:22;99732.22;;;-5.30;86.75
18749;BME280;9503;53.560;10.246;2022-12-15T02:48:01;99733.59;;;-5.42;87.16
18749;BME280;9503;53.560;10.246;2022-12-15T02:50:46;99742.69;;;-5.34;86.73
18749;BME280;9503;53.560;10.246;2022-12-15T02:53:23;99747.13;;;-5.48;86.91
18749;BME280;9503;53.560;10.246;2022-12-15T02:55:59;99753.28;;;-5.53;88.13
18749;BME280;9503;53.560;10.246;2022-12-15T02:58:36;99757.25;;;-5.56;87.54
18749;BME280;9503;53.560;10.246;2022-12-15T03:01:10;99754.31;;;-5.43;87.38
18749;BME280;9503;53.560;10.246;2022-12-15T03:03:39;99754.75;;;-5.47;86.36
18749;BME280;9503;53.560;10.246;2022-12-15T03:06:08;99752.53;;;-5.52;86.70
18749;BME280;9503;53.560;10.246;2022-12-15T03:08:34;99750.94;;;-5.43;86.85
18749;BME280;9503;53.560;10.246;2022-12-15T03:11:01;99747.84;;;-5.41;86.73
18749;BME280;9503;53.560;10.246;2022-12-15T03:13:28;99750.44;;;-5.31;86.89
18749;BME280;9503;53.560;10.246;2022-12-15T03:15:54;99746.50;;;-5.29;85.89
18749;BME280;9503;53.560;10.246;2022-12-15T03:18:23;99747.94;;;-5.22;85.90
18749;BME280;9503;53.560;10.246;2022-12-15T03:20:50;99748.09;;;-5.29;85.95
18749;BME280;9503;53.560;10.246;2022-12-15T03:23:17;99750.31;;;-5.32;86.17
18749;BME280;9503;53.560;10.246;2022-12-15T03:25:47;99749.72;;;-5.30;85.64
18749;BME280;9503;53.560;10.246;2022-12-15T03:28:14;99754.00;;;-5.29;85.24
18749;BME280;9503;53.560;10.246;2022-12-15T03:30:41;99750.75;;;-5.36;84.83
18749;BME280;9503;53.560;10.246;2022-12-15T03:33:08;99745.63;;;-5.38;84.97
18749;BME280;9503;53.560;10.246;2022-12-15T03:35:36;99747.22;;;-5.30;84.93
18749;BME280;9503;53.560;10.246;2022-12-15T03:38:02;99739.88;;;-5.28;84.69
18749;BME280;9503;53.560;10.246;2022-12-15T03:40:29;99738.25;;;-5.36;83.90
18749;BME280;9503;53.560;10.246;2022-12-15T03:42:56;99741.84;;;-5.69;84.99
18749;BME280;9503;53.560;10.246;2022-12-15T03:45:24;99752.72;;;-5.68;85.51
18749;BME280;9503;53.560;10.246;2022-12-15T03:47:52;99765.94;;;-5.78;86.84
18749;BME280;9503;53.560;10.246;2022-12-15T03:50:20;99762.41;;;-5.63;86.31
18749;BME280;9503;53.560;10.246;2022-12-15T03:52:50;99759.75;;;-5.47;85.88
18749;BME280;9503;53.560;10.246;2022-12-15T03:55:18;99757.84;;;-5.41;85.61
18749;BME280;9503;53.560;10.246;2022-12-15T03:57:45;99745.63;;;-5.38;85.62
18749;BME280;9503;53.560;10.246;2022-12-15T04:00:12;99744.75;;;-5.38;84.85
18749;BME280;9503;53.560;10.246;2022-12-15T04:02:40;99757.53;;;-5.44;84.82
18749;BME280;9503;53.560;10.246;2022-12-15T04:05:07;99761.22;;;-5.49;84.48
18749;BME280;9503;53.560;10.246;2022-12-15T04:07:34;99761.63;;;-5.44;84.52
18749;BME280;9503;53.560;10.246;2022-12-15T04:10:02;99768.25;;;-5.45;84.73
18749;BME280;9503;53.560;10.246;2022-12-15T04:12:29;99774.00;;;-5.54;84.70
18749;BME280;9503;53.560;10.246;2022-12-15T04:14:55;99780.88;;;-5.52;84.18
18749;BME280;9503;53.560;10.246;2022-12-15T04:17:22;99775.75;;;-5.45;84.80
18749;BME280;9503;53.560;10.246;2022-12-15T04:19:49;99776.47;;;-5.37;85.02
18749;BME280;9503;53.560;10.246;2022-12-15T04:22:33;99760.16;;;-5.34;84.86
18749;BME280;9503;53.560;10.246;2022-12-15T04:24:59;99769.72;;;-5.38;84.36
18749;BME280;9503;53.560;10.246;2022-12-15T04:27:45;99766.63;;;-5.27;84.06
18749;BME280;9503;53.560;10.246;2022-12-15T04:30:29;99771.88;;;-5.24;84.32
18749;BME280;9503;53.560;10.246;2022-12-15T04:33:14;99767.47;;;-5.18;84.01
18749;BME280;9503;53.560;10.246;2022-12-15T04:35:58;99768.22;;;-5.19;84.17
18749;BME280;9503;53.560;10.246;2022-12-15T04:38:42;99765.72;;;-5.19;83.76
18749;BME280;9503;53.560;10.246;2022-12-15T04:41:27;99765.72;;;-5.19;83.37
18749;BME280;9503;53.560;10.246;2022-12-15T04:44:13;99772.78;;;-5.23;83.32
18749;BME280;9503;53.560;10.246;2022-12-15T04:46:57;99774.38;;;-5.24;83.28
18749;BME280;9503;53.560;10.246;2022-12-15T04:49:41;99788.06;;;-5.29;82.92
18749;BME280;9503;53.560;10.246;2022-12-15T04:52:26;99790.16;;;-5.60;83.56
18749;BME280;9503;53.560;10.246;2022-12-15T04:55:10;99784.56;;;-5.48;86.09
18749;BME280;9503;53.560;10.246;2022-12-15T04:57:54;99780.31;;;-5.67;86.90
18749;BME280;9503;53.560;10.246;2022-12-15T05:00:40;99784.44;;;-5.50;87.38
18749;BME280;9503;53.560;10.246;2022-12-15T05:03:24;99783.22;;;-5.36;86.17
18749;BME280;9503;53.560;10.246;2022-12-15T05:06:08;99772.50;;;-5.26;86.11
18749;BME280;9503;53.560;10.246;2022-12-15T05:08:52;99779.53;;;-5.31;86.29
18749;BME280;9503;53.560;10.246;2022-12-15T05:11:36;99786.13;;;-5.23;85.74
18749;BME280;9503;53.560;10.246;2022-12-15T05:14:20;99784.97;;;-5.18;85.62
18749;BME280;9503;53.560;10.246;2022-12-15T05:17:05;99792.47;;;-5.26;86.04
18749;BME280;9503;53.560;10.246;2022-12-15T05:19:49;99801.44;;;-5.37;85.70
18749;BME280;9503;53.560;10.246;2022-12-15T05:22:33;99804.97;;;-5.35;86.43
18749;BME280;9503;53.560;10.246;2022-12-15T05:25:17;99817.31;;;-5.54;87.14
18749;BME280;9503;53.560;10.246;2022-12-15T05:28:04;99808.81;;;-5.47;87.58
18749;BME280;9503;53.560;10.246;2022-12-15T05:30:49;99805.09;;;-5.25;87.22
18749;BME280;9503;53.560;10.246;2022-12-15T05:33:34;99818.19;;;-5.19;86.45
18749;BME280;9503;53.560;10.246;2022-12-15T05:36:01;99813.19;;;-5.19;86.72
18749;BME280;9503;53.560;10.246;2022-12-15T05:38:27;99809.94;;;-5.18;85.55
18749;BME280;9503;53.560;10.246;2022-12-15T05:40:56;99816.69;;;-5.17;85.51
18749;BME280;9503;53.560;10.246;2022-12-15T05:43:22;99810.09;;;-5.25;85.42
18749;BME280;9503;53.560;10.246;2022-12-15T05:45:49;99813.03;;;-5.20;84.98
18749;BME280;9503;53.560;10.246;2022-12-15T05:48:16;99818.47;;;-5.24;85.00
18749;BME280;9503;53.560;10.246;2022-12-15T05:50:44;99828.47;;;-5.24;84.85
18749;BME280;9503;53.560;10.246;2022-12-15T05:53:10;99820.84;;;-5.26;85.27
18749;BME280;9503;53.560;10.246;2022-12-15T05:55:37;99827.72;;;-5.23;85.38
18749;BME280;9503;53.560;10.246;2022-12-15T05:58:03;99830.69;;;-5.28;85.91
18749;BME280;9503;53.560;10.246;2022-12-15T06:00:30;99835.34;;;-5.22;86.12
18749;BME280;9503;53.560;10.246;2022-12-15T06:02:57;99834.91;;;-5.18;85.89
18749;BME280;9503;53.560;10.246;2022-12-15T06:05:23;99842.41;;;-5.18;85.90
18749;BME280;9503;53.560;10.246;2022-12-15T06:07:51;99847.13;;;-5.12;85.96
18749;BME280;9503;53.560;10.246;2022-12-15T06:10:19;99866.06;;;-5.23;86.44
18749;BME280;9503;53.560;10.246;2022-12-15T06:12:45;99860.94;;;-5.24;86.10
18749;BME280;9503;53.560;10.246;2022-12-15T06:15:12;99850.50;;;-5.12;86.13
18749;BME280;9503;53.560;10.246;2022-12-15T06:17:39;99854.00;;;-5.10;86.94
18749;BME280;9503;53.560;10.246;2022-12-15T06:20:06;99859.00;;;-5.01;87.02
18749;BME280;9503;53.560;10.246;2022-12-15T06:22:33;99860.75;;;-5.00;87.70
18749;BME280;9503;53.560;10.246;2022-12-15T06:25:01;99858.56;;;-4.97;87.59
18749;BME280;9503;53.560;10.246;2022-12-15T06:27:27;99859.56;;;-4.95;87.48
18749;BME280;9503;53.560;10.246;2022-12-15T06:29:54;99865.44;;;-4.94;87.62
18749;BME280;9503;53.560;10.246;2022-12-15T06:32:21;99869.53;;;-4.86;87.80
18749;BME280;9503;53.560;10.246;2022-12-15T06:34:47;99866.47;;;-4.84;87.40
18749;BME280;9503;53.560;10.246;2022-12-15T06:37:14;99870.72;;;-4.74;87.31
18749;BME280;9503;53.560;10.246;2022-12-15T06:39:40;99876.88;;;-4.79;87.92
18749;BME280;9503;53.560;10.246;2022-12-15T06:42:09;99879.38;;;-4.79;87.34
18749;BME280;9503;53.560;10.246;2022-12-15T06:44:36;99887.63;;;-4.80;87.65
18749;BME280;9503;53.560;10.246;2022-12-15T06:47:02;99891.72;;;-4.72;87.92
18749;BME280;9503;53.560;10.246;2022-12-15T06:49:29;99893.47;;;-4.62;87.90
18749;BME280;9503;53.560;10.246;2022-12-15T06:51:56;99884.38;;;-4.62;87.25
18749;BME280;9503;53.560;10.246;2022-12-15T06:54:22;99884.53;;;-4.69;86.82
18749;BME280;9503;53.560;10.246;2022-12-15T06:56:49;99883.03;;;-4.67;86.87
18749;BME280;9503;53.560;10.246;2022-12-15T06:59:17;99879.19;;;-4.63;86.42
18749;BME280;9503;53.560;10.246;2022-12-15T07:01:44;99883.03;;;-4.67;86.52
18749;BME280;9503;53.560;10.246;2022-12-15T07:04:10;99882.31;;;-4.75;87.32
18749;BME280;9503;53.560;10.246;2022-12-15T07:06:37;99891.16;;;-4.87;88.21
18749;BME280;9503;53.560;10.246;2022-12-15T07:09:05;99897.19;;;-4.85;88.57
18749;BME280;9503;53.560;10.246;2022-12-15T07:11:34;99907.19;;;-4.93;88.98
18749;BME280;9503;53.560;10.246;2022-12-15T07:14:01;99907.78;;;-4.87;88.98
18749;BME280;9503;53.560;10.246;2022-12-15T07:16:30;99914.53;;;-4.78;89.29
18749;BME280;9503;53.560;10.246;2022-12-15T07:18:57;99916.88;;;-4.79;89.02
18749;BME280;9503;53.560;10.246;2022-12-15T07:21:23;99913.63;;;-4.78;89.48
18749;BME280;9503;53.560;10.246;2022-12-15T07:23:50;99919.34;;;-4.70;90.01
18749;BME280;9503;53.560;10.246;2022-12-15T07:26:17;99924.53;;;-4.69;89.52
18749;BME280;9503;53.560;10.246;2022-12-15T07:28:43;99936.44;;;-4.75;90.11
18749;BME280;9503;53.560;10.246;2022-12-15T07:31:10;99929.69;;;-4.76;89.88
18749;BME280;9503;53.560;10.246;2022-12-15T07:33:38;99935.69;;;-4.65;89.52
18749;BME280;9503;53.560;10.246;2022-12-15T07:36:05;99942.44;;;-4.64;89.84
18749;BME280;9503;53.560;10.246;2022-12-15T07:38:34;99951.00;;;-4.62;89.66
18749;BME280;9503;53.560;10.246;2022-12-15T07:41:01;99948.16;;;-4.57;89.85
18749;BME280;9503;53.560;10.246;2022-12-15T07:43:28;99955.06;;;-4.46;89.63
18749;BME280;9503;53.560;10.246;2022-12-15T07:45:56;99955.66;;;-4.57;89.74
18749;BME280;9503;53.560;10.246;2022-12-15T07:48:23;99961.84;;;-4.53;89.80
18749;BME280;9503;53.560;10.246;2022-12-15T07:50:51;99958.91;;;-4.40;90.13
18749;BME280;9503;53.560;10.246;2022-12-15T07:53:22;99963.13;;;-4.31;89.82
18749;BME280;9503;53.560;10.246;2022-12-15T07:55:52;99968.97;;;-4.22;89.82
18749;BME280;9503;53.560;10.246;2022-12-15T07:58:19;99975.31;;;-4.17;90.01
18749;BME280;9503;53.560;10.246;2022-12-15T08:00:46;99974.34;;;-4.00;89.92
18749;BME280;9503;53.560;10.246;2022-12-15T08:03:12;99976.38;;;-3.87;90.11
18749;BME280;9503;53.560;10.246;2022-12-15T08:05:39;99978.22;;;-3.76;90.22
18749;BME280;9503;53.560;10.246;2022-12-15T08:08:07;99969.97;;;-3.75;90.17
18749;BME280;9503;53.560;10.246;2022-12-15T08:10:37;99981.38;;;-3.87;90.83
18749;BME280;9503;53.560;10.246;2022-12-15T08:13:04;99984.81;;;-3.68;90.96
18749;BME280;9503;53.560;10.246;2022-12-15T08:15:33;99985.72;;;-3.67;90.67
18749;BME280;9503;53.560;10.246;2022-12-15T08:18:00;99982.78;;;-3.72;91.41
18749;BME280;9503;53.560;10.246;2022-12-15T08:20:26;99984.78;;;-3.59;91.60
18749;BME280;9503;53.560;10.246;2022-12-15T08:22:54;99989.25;;;-3.19;91.24
18749;BME280;9503;53.560;10.246;2022-12-15T08:25:22;99987.22;;;-3.04;91.39
18749;BME280;9503;53.560;10.246;2022-12-15T08:27:49;99997.75;;;-2.89;91.66
18749;BME280;9503;53.560;10.246;2022-12-15T08:30:16;100005.16;;;-3.18;91.33
18749;BME280;9503;53.560;10.246;2022-12-15T08:32:43;100007.41;;;-3.02;91.95
18749;BME280;9503;53.560;10.246;2022-12-15T08:35:10;100005.59;;;-2.95;92.47
18749;BME280;9503;53.560;10.246;2022-12-15T08:37:37;100005.88;;;-2.73;91.96
18749;BME280;9503;53.560;10.246;2022-12-15T08:40:06;100007.00;;;-2.51;91.45
18749;BME280;9503;53.560;10.246;2022-12-15T08:42:34;100014.16;;;-2.93;91.60
18749;BME280;9503;53.560;10.246;2022-12-15T08:45:01;100011.09;;;-2.80;91.88
18749;BME280;9503;53.560;10.246;2022-12-15T08:47:28;100022.88;;;-2.60;92.78
18749;BME280;9503;53.560;10.246;2022-12-15T08:49:54;100017.94;;;-2.69;92.60
18749;BME280;9503;53.560;10.246;2022-12-15T08:52:21;100028.53;;;-2.63;92.31
18749;BME280;9503;53.560;10.246;2022-12-15T08:54:48;100030.19;;;-2.72;92.68
18749;BME280;9503;53.560;10.246;2022-12-15T08:57:15;100028.66;;;-2.61;92.47
18749;BME280;9503;53.560;10.246;2022-12-15T08:59:43;100028.19;;;-2.28;92.83
18749;BME280;9503;53.560;10.246;2022-12-15T09:02:11;100024.69;;;-2.01;92.69
18749;BME280;9503;53.560;10.246;2022-12-15T09:04:37;100017.13;;;-2.59;91.79
18749;BME280;9503;53.560;10.246;2022-12-15T09:07:05;100033.81;;;-2.41;92.21
18749;BME280;9503;53.560;10.246;2022-12-15T09:09:32;100028.47;;;-2.25;92.62
18749;BME280;9503;53.560;10.246;2022-12-15T09:11:58;100029.66;;;-2.40;92.75
18749;BME280;9503;53.560;10.246;2022-12-15T09:14:25;100027.03;;;-1.74;93.69
18749;BME280;9503;53.560;10.246;2022-12-15T09:16:53;100025.81;;;-1.48;93.77
18749;BME280;9503;53.560;10.246;2022-12-15T09:19:19;100017.91;;;-1.32;92.33
18749;BME280;9503;53.560;10.246;2022-12-15T09:21:46;100021.81;;;-1.26;92.64
18749;BME280;9503;53.560;10.246;2022-12-15T09:24:13;100021.31;;;-0.91;93.22
18749;BME280;9503;53.560;10.246;2022-12-15T09:26:40;100025.09;;;-0.76;93.05
18749;BME280;9503;53.560;10.246;2022-12-15T09:29:09;100009.56;;;-0.50;92.65
18749;BME280;9503;53.560;10.246;2022-12-15T09:31:38;100020.75;;;-0.36;92.44
18749;BME280;9503;53.560;10.246;2022-12-15T09:34:06;100021.09;;;-0.32;91.15
18749;BME280;9503;53.560;10.246;2022-12-15T09:36:33;100032.94;;;-0.41;91.18
18749;BME280;9503;53.560;10.246;2022-12-15T09:39:00;100020.91;;;-0.23;92.39
18749;BME280;9503;53.560;10.246;2022-12-15T09:41:29;100022.38;;;-0.05;91.75
18749;BME280;9503;53.560;10.246;2022-12-15T09:43:59;100033.28;;;0.06;91.05
18749;BME280;9503;53.560;10.246;2022-12-15T09:46:40;100041.44;;;0.36;91.58
18749;BME280;9503;53.560;10.246;2022-12-15T09:49:15;100051.72;;;0.27;90.42
18749;BME280;9503;53.560;10.246;2022-12-15T09:51:50;100050.25;;;0.63;92.01
18749;BME280;9503;53.560;10.246;2022-12-15T09:54:19;100038.03;;;1.13;93.63
18749;BME280;9503;53.560;10.246;2022-12-15T09:56:51;100045.50;;;1.23;92.50
18749;BME280;9503;53.560;10.246;2022-12-15T09:59:27;100042.09;;;1.22;93.12
18749;BME280;9503;53.560;10.246;2022-12-15T10:02:12;100036.69;;;0.72;89.27
18749;BME280;9503;53.560;10.246;2022-12-15T10:04:48;100036.59;;;0.49;89.34
18749;BME280;9503;53.560;10.246;2022-12-15T10:07:25;100045.63;;;0.35;89.13
18749;BME280;9503;53.560;10.246;2022-12-15T10:09:54;100045.25;;;0.09;87.85
18749;BME280;9503;53.560;10.246;2022-12-15T10:12:24;100054.19;;;0.05;88.66
18749;BME280;9503;53.560;10.246;2022-12-15T10:14:56;100050.69;;;0.03;88.73
18749;BME280;9503;53.560;10.246;2022-12-15T10:17:37;100052.84;;;0.31;89.74
18749;BME280;9503;53.560;10.246;2022-12-15T10:20:15;100055.13;;;0.49;90.32
18749;BME280;9503;53.560;10.246;2022-12-15T10:22:44;100053.44;;;-0.26;89.36
18749;BME280;9503;53.560;10.246;2022-12-15T10:25:14;100051.00;;;0.18;90.42
18749;BME280;9503;53.560;10.246;2022-12-15T10:27:58;100050.19;;;0.29;90.42
18749;BME280;9503;53.560;10.246;2022-12-15T10:30:32;100059.66;;;-0.43;91.50
18749;BME280;9503;53.560;10.246;2022-12-15T10:33:02;100043.22;;;0.15;92.08
18749;BME280;9503;53.560;10.246;2022-12-15T10:35:32;100034.63;;;0.45;93.13
18749;BME280;9503;53.560;10.246;2022-12-15T10:38:01;100033.78;;;0.56;91.36
18749;BME280;9503;53.560;10.246;2022-12-15T10:40:44;100030.28;;;0.66;92.20
18749;BME280;9503;53.560;10.246;2022-12-15T10:43:13;100034.84;;;0.48;90.90
18749;BME280;9503;53.560;10.246;2022-12-15T10:45:40;100027.75;;;0.54;90.39
18749;BME280;9503;53.560;10.246;2022-12-15T10:48:17;100032.50;;;0.39;90.03
18749;BME280;9503;53.560;10.246;2022-12-15T10:50:45;100026.88;;;0.53;91.11
18749;BME280;9503;53.560;10.246;2022-12-15T10:53:41;100019.53;;;0.57;91.90
18749;BME280;9503;53.560;10.246;2022-12-15T10:56:17;100019.16;;;0.74;90.94
18749;BME280;9503;53.560;10.246;2022-12-15T10:58:46;100020.31;;;0.89;90.64
18749;BME280;9503;53.560;10.246;2022-12-15T11:01:15;100029.66;;;1.02;92.17
18749;BME280;9503;53.560;10.246;2022-12-15T11:03:42;100035.09;;;1.18;91.34
18749;BME280;9503;53.560;10.246;2022-12-15T11:06:15;100037.25;;;0.80;90.66
18749;BME280;9503;53.560;10.246;2022-12-15T11:08:43;100032.31;;;1.03;91.41
18749;BME280;9503;53.560;10.246;2022-12-15T11:11:24;100034.63;;;0.45;91.59
18749;BME280;9503;53.560;10.246;2022-12-15T11:14:12;100033.44;;;0.85;91.67
18749;BME280;9503;53.560;10.246;2022-12-15T11:16:44;100026.81;;;1.09;91.51
18749;BME280;9503;53.560;10.246;2022-12-15T11:19:15;100027.06;;;1.24;93.39
18749;BME280;9503;53.560;10.246;2022-12-15T11:21:52;100025.44;;;1.36;90.79
18749;BME280;9503;53.560;10.246;2022-12-15T11:24:30;100037.38;;;1.15;90.50
18749;BME280;9503;53.560;10.246;2022-12-15T11:27:03;100036.44;;;0.91;90.81
18749;BME280;9503;53.560;10.246;2022-12-15T11:29:43;100034.00;;;1.38;91.77
18749;BME280;9503;53.560;10.246;2022-12-15T11:32:13;100035.50;;;1.24;90.69
18749;BME280;9503;53.560;10.246;2022-12-15T11:34:41;100038.91;;;1.13;89.49
18749;BME280;9503;53.560;10.246;2022-12-15T11:40:26;100050.25;;;1.88;90.48
18749;BME280;9503;53.560;10.246;2022-12-15T11:43:29;100049.84;;;2.06;91.04
18749;BME280;9503;53.560;10.246;2022-12-15T11:46:15;100049.25;;;2.21;89.76
18749;BME280;9503;53.560;10.246;2022-12-15T11:48:53;100050.22;;;2.35;89.94
18749;BME280;9503;53.560;10.246;2022-12-15T11:51:31;100051.00;;;2.11;89.31
18749;BME280;9503;53.560;10.246;2022-12-15T11:54:10;100057.66;;;2.45;89.06
18749;BME280;9503;53.560;10.246;2022-12-15T11:56:45;100057.72;;;2.59;89.16
18749;BME280;9503;53.560;10.246;2022-12-15T11:59:37;100059.94;;;2.06;86.86
18749;BME280;9503;53.560;10.246;2022-12-15T12:02:17;100053.75;;;2.62;86.72
18749;BME280;9503;53.560;10.246;2022-12-15T12:04:59;100060.34;;;2.35;86.06
18749;BME280;9503;53.560;10.246;2022-12-15T12:07:35;100062.81;;;2.47;86.48
18749;BME280;9503;53.560;10.246;2022-12-15T12:10:18;100052.50;;;2.44;84.50
18749;BME280;9503;53.560;10.246;2022-12-15T12:12:56;100057.41;;;2.54;86.32
18749;BME280;9503;53.560;10.246;2022-12-15T12:15:28;100063.13;;;1.80;86.48
18749;BME280;9503;53.560;10.246;2022-12-15T12:18:03;100053.34;;;1.96;87.00
18749;BME280;9503;53.560;10.246;2022-12-15T12:20:39;100049.50;;;2.01;86.54
18749;BME280;9503;53.560;10.246;2022-12-15T12:23:15;100054.69;;;1.91;85.71
18749;BME280;9503;53.560;10.246;2022-12-15T12:25:57;100058.16;;;2.05;86.65
18749;BME280;9503;53.560;10.246;2022-12-15T12:28:32;100063.41;;;2.19;87.28
18749;BME280;9503;53.560;10.246;2022-12-15T12:31:02;100065.66;;;1.91;85.62
18749;BME280;9503;53.560;10.246;2022-12-15T12:33:34;100068.78;;;2.36;86.67
18749;BME280;9503;53.560;10.246;2022-12-15T12:36:08;100068.44;;;2.80;86.43
18749;BME280;9503;53.560;10.246;2022-12-15T12:38:38;100068.47;;;2.93;85.74
18749;BME280;9503;53.560;10.246;2022-12-15T12:41:16;100062.31;;;3.14;84.38
18749;BME280;9503;53.560;10.246;2022-12-15T12:43:51;100060.72;;;3.03;83.78
18749;BME280;9503;53.560;10.246;2022-12-15T12:46:23;100067.16;;;2.86;82.86
18749;BME280;9503;53.560;10.246;2022-12-15T12:48:54;100071.59;;;2.89;82.88
18749;BME280;9503;53.560;10.246;2022-12-15T12:51:26;100061.69;;;2.07;84.67
18749;BME280;9503;53.560;10.246;2022-12-15T12:53:54;100060.03;;;2.56;84.97
18749;BME280;9503;53.560;10.246;2022-12-15T12:56:29;100064.38;;;2.45;84.35
18749;BME280;9503;53.560;10.246;2022-12-15T12:58:58;100061.59;;;2.78;84.33
18749;BME280;9503;53.560;10.246;2022-12-15T13:01:27;100060.69;;;2.65;83.91
18749;BME280;9503;53.560;10.246;2022-12-15T13:04:07;100062.69;;;3.07;84.00
18749;BME280;9503;53.560;10.246;2022-12-15T13:06:58;100060.81;;;3.04;83.39
18749;BME280;9503;53.560;10.246;2022-12-15T13:09:37;100069.63;;;3.10;82.14
18749;BME280;9503;53.560;10.246;2022-12-15T13:12:06;100072.28;;;3.24;82.38
18749;BME280;9503;53.560;10.246;2022-12-15T13:14:53;100069.63;;;3.23;81.67
18749;BME280;9503;53.560;10.246;2022-12-15T13:17:28;100072.75;;;3.19;82.65
18749;BME280;9503;53.560;10.246;2022-12-15T13:20:26;100063.19;;;3.15;81.99
18749;BME280;9503;53.560;10.246;2022-12-15T13:22:55;100060.16;;;3.07;82.47
18749;BME280;9503;53.560;10.246;2022-12-15T13:25:43;100057.78;;;3.35;82.42
18749;BME280;9503;53.560;10.246;2022-12-15T13:28:24;100057.19;;;2.88;82.57
18749;BME280;9503;53.560;10.246;2022-12-15T13:31:25;100061.03;;;2.83;84.62
18749;BME280;9503;53.560;10.246;2022-12-15T13:34:04;100065.13;;;2.81;84.10
18749;BME280;9503;53.560;10.246;2022-12-15T13:36:43;100057.19;;;2.51;84.72